createdAt,value
2022-10-05T00:01:34.386Z,7.85
2022-10-05T00:04:24.347Z,7.80
2022-10-05T00:07:05.299Z,7.82
2022-10-05T00:09:33.943Z,7.77
2022-10-05T00:12:22.485Z,7.68
2022-10-05T00:14:57.863Z,7.66
2022-10-05T00:17:30.438Z,7.64
2022-10-05T00:19:57.446Z,7.63
2022-10-05T00:22:34.110Z,7.63
2022-10-05T00:25:14.582Z,7.62
2022-10-05T00:27:42.494Z,7.64
2022-10-05T00:30:18.967Z,7.60
2022-10-05T00:32:47.921Z,7.51
2022-10-05T00:35:18.866Z,7.49
2022-10-05T00:37:53.365Z,7.41
2022-10-05T00:41:01.058Z,7.39
2022-10-05T00:43:55.047Z,7.39
2022-10-05T00:46:48.715Z,7.33
2022-10-05T00:49:50.971Z,7.31
2022-10-05T00:53:16.508Z,7.26
2022-10-05T00:56:04.738Z,7.24
2022-10-05T00:59:03.967Z,7.25
2022-10-05T01:02:37.712Z,7.30
2022-10-05T01:05:44.273Z,7.29
2022-10-05T01:08:57.069Z,7.32
2022-10-05T01:11:51.041Z,7.29
2022-10-05T01:15:07.259Z,7.27
2022-10-05T01:18:23.662Z,7.28
2022-10-05T01:21:21.559Z,7.32
2022-10-05T01:24:12.494Z,7.32
2022-10-05T01:27:14.802Z,7.33
2022-10-05T01:30:12.390Z,7.43
2022-10-05T01:33:04.422Z,7.47
2022-10-05T01:35:56.350Z,7.48
2022-10-05T01:39:00.687Z,7.42
2022-10-05T01:41:59.292Z,7.42
2022-10-05T01:44:57.094Z,7.40
2022-10-05T01:47:45.710Z,7.35
2022-10-05T01:50:36.151Z,7.35
2022-10-05T01:53:49.596Z,7.26
2022-10-05T01:57:08.591Z,7.26
2022-10-05T02:00:14.430Z,7.25
2022-10-05T02:03:28.271Z,7.20
2022-10-05T02:06:11.512Z,7.14
2022-10-05T02:09:08.797Z,7.11
2022-10-05T02:11:45.217Z,7.07
2022-10-05T02:14:24.529Z,7.01
2022-10-05T02:17:01.959Z,6.97
2022-10-05T02:19:46.173Z,6.94
2022-10-05T02:22:41.157Z,6.92
2022-10-05T02:25:21.382Z,6.92
2022-10-05T02:28:04.291Z,6.92
2022-10-05T02:30:44.099Z,6.85
2022-10-05T02:33:32.749Z,6.83
2022-10-05T02:36:23.822Z,6.83
2022-10-05T02:39:17.690Z,6.79
2022-10-05T02:42:35.141Z,6.78
2022-10-05T02:45:30.170Z,6.75
2022-10-05T02:48:42.100Z,6.76
2022-10-05T02:51:48.780Z,6.63
2022-10-05T02:54:53.481Z,6.59
2022-10-05T02:57:47.158Z,6.57
2022-10-05T03:00:22.864Z,6.56
2022-10-05T03:03:14.391Z,6.55
2022-10-05T03:06:05.403Z,6.56
2022-10-05T03:08:53.015Z,6.58
2022-10-05T03:11:44.522Z,6.58
2022-10-05T03:14:28.494Z,6.60
2022-10-05T03:17:15.819Z,6.60
2022-10-05T03:20:42.787Z,6.62
2022-10-05T03:24:05.448Z,6.63
2022-10-05T03:27:00.962Z,6.60
2022-10-05T03:29:59.614Z,6.63
2022-10-05T03:33:22.602Z,6.67
2022-10-05T03:36:10.250Z,6.71
2022-10-05T03:39:22.032Z,6.75
2022-10-05T03:42:46.553Z,6.79
2022-10-05T03:45:33.030Z,6.86
2022-10-05T03:48:32.795Z,6.93
2022-10-05T03:51:24.138Z,6.99
2022-10-05T03:54:17.325Z,7.07
2022-10-05T03:57:07.432Z,7.16
2022-10-05T03:59:56.382Z,7.19
2022-10-05T04:03:12.463Z,7.24
2022-10-05T04:06:13.451Z,7.26
2022-10-05T04:09:13.997Z,7.27
2022-10-05T04:12:10.477Z,7.35
2022-10-05T04:14:49.432Z,7.38
2022-10-05T04:17:38.238Z,7.38
2022-10-05T04:20:30.120Z,7.38
2022-10-05T04:23:48.035Z,7.44
2022-10-05T04:26:35.961Z,7.61
2022-10-05T04:29:44.421Z,7.61
2022-10-05T04:32:50.299Z,7.53
2022-10-05T04:35:40.807Z,7.53
2022-10-05T04:39:05.207Z,7.52
2022-10-05T04:42:25.733Z,7.61
2022-10-05T04:45:38.271Z,7.71
2022-10-05T04:48:48.417Z,7.71
2022-10-05T04:52:01.369Z,7.73
2022-10-05T04:55:14.383Z,7.79
2022-10-05T04:58:37.757Z,7.79
2022-10-05T05:02:11.356Z,7.75
2022-10-05T05:06:15.277Z,7.73
2022-10-05T05:09:37.075Z,7.74
2022-10-05T05:12:27.537Z,7.75
2022-10-05T05:15:17.518Z,7.83
2022-10-05T05:18:39.855Z,7.85
2022-10-05T05:22:09.634Z,7.88
2022-10-05T05:25:34.652Z,7.83
2022-10-05T05:29:09.034Z,7.82
2022-10-05T05:32:05.113Z,7.88
2022-10-05T05:35:34.131Z,7.90
2022-10-05T05:38:37.028Z,7.90
2022-10-05T05:41:54.799Z,8.00
2022-10-05T05:44:38.577Z,8.06
2022-10-05T05:47:39.953Z,8.06
2022-10-05T05:50:41.891Z,8.09
2022-10-05T05:53:27.266Z,8.23
2022-10-05T05:56:37.118Z,8.27
2022-10-05T05:59:25.010Z,8.36
2022-10-05T06:02:09.775Z,8.39
2022-10-05T06:05:06.829Z,8.45
2022-10-05T06:07:38.773Z,8.49
2022-10-05T06:10:24.893Z,8.62
2022-10-05T06:13:01.682Z,8.70
2022-10-05T06:16:10.260Z,8.82
2022-10-05T06:18:48.425Z,8.84
2022-10-05T06:21:32.967Z,8.90
2022-10-05T06:24:20.287Z,8.97
2022-10-05T06:27:26.236Z,9.00
2022-10-05T06:30:17.043Z,9.08
2022-10-05T06:33:38.760Z,9.10
2022-10-05T06:36:45.459Z,9.21
2022-10-05T06:39:21.381Z,9.31
2022-10-05T06:42:29.307Z,9.37
2022-10-05T06:45:43.604Z,9.51
2022-10-05T06:48:44.211Z,9.55
2022-10-05T06:51:52.850Z,9.60
2022-10-05T06:54:56.414Z,9.63
2022-10-05T06:58:24.147Z,9.67
2022-10-05T07:01:11.082Z,9.75
2022-10-05T07:04:09.666Z,9.88
2022-10-05T07:07:40.055Z,9.96
2022-10-05T07:10:42.501Z,10.02
2022-10-05T07:14:03.296Z,10.06
2022-10-05T07:17:26.550Z,10.17
2022-10-05T07:20:48.929Z,10.26
2022-10-05T07:23:59.063Z,10.45
2022-10-05T07:26:55.068Z,10.62
2022-10-05T07:29:52.268Z,10.76
2022-10-05T07:33:05.711Z,10.75
2022-10-05T07:36:21.626Z,10.83
2022-10-05T07:40:00.535Z,10.93
2022-10-05T07:43:40.283Z,11.06
2022-10-05T07:46:54.662Z,11.21
2022-10-05T07:49:59.692Z,11.35
2022-10-05T07:52:49.371Z,11.67
2022-10-05T07:55:37.185Z,12.02
2022-10-05T07:59:01.808Z,12.05
2022-10-05T08:01:38.399Z,12.31
2022-10-05T08:04:27.137Z,12.26
2022-10-05T08:07:12.640Z,12.19
2022-10-05T08:09:51.941Z,12.22
2022-10-05T08:13:01.501Z,12.30
2022-10-05T08:15:44.819Z,12.46
2022-10-05T08:18:46.106Z,12.59
2022-10-05T08:21:23.708Z,12.69
2022-10-05T08:24:15.625Z,12.87
2022-10-05T08:27:05.608Z,12.82
2022-10-05T08:29:59.579Z,12.89
2022-10-05T08:32:55.404Z,13.08
2022-10-05T08:35:47.049Z,13.07
2022-10-05T08:38:30.421Z,13.12
2022-10-05T08:41:31.168Z,13.18
2022-10-05T08:45:19.082Z,13.86
2022-10-05T08:48:11.447Z,14.18
2022-10-05T08:51:46.451Z,14.36
2022-10-05T08:55:21.960Z,14.56
2022-10-05T08:58:50.118Z,14.84
2022-10-05T09:02:08.807Z,14.64
2022-10-05T09:05:15.177Z,14.78
2022-10-05T09:08:36.518Z,14.85
2022-10-05T09:11:35.542Z,15.00
2022-10-05T09:14:43.139Z,15.02
2022-10-05T09:17:50.091Z,14.70
2022-10-05T09:20:55.270Z,14.83
2022-10-05T09:23:44.974Z,14.63
2022-10-05T09:27:00.572Z,14.52
2022-10-05T09:30:41.998Z,14.56
2022-10-05T09:34:01.091Z,14.64
2022-10-05T09:37:19.851Z,14.74
2022-10-05T09:40:57.742Z,14.57
2022-10-05T09:43:54.507Z,14.68
2022-10-05T09:46:58.879Z,14.43
2022-10-05T09:50:20.815Z,14.45
2022-10-05T09:53:42.697Z,14.51
2022-10-05T09:56:35.254Z,14.56
2022-10-05T09:59:51.970Z,14.73
2022-10-05T10:03:15.207Z,14.96
2022-10-05T10:06:02.712Z,15.16
2022-10-05T10:09:04.374Z,15.16
2022-10-05T10:12:28.825Z,15.53
2022-10-05T10:15:54.766Z,15.64
2022-10-05T10:19:01.240Z,15.66
2022-10-05T10:21:59.835Z,15.72
2022-10-05T10:24:58.387Z,15.70
2022-10-05T10:28:07.237Z,15.75
2022-10-05T10:31:16.568Z,15.85
2022-10-05T10:34:28.791Z,15.90
2022-10-05T10:37:39.448Z,16.02
2022-10-05T10:40:42.460Z,15.90
2022-10-05T10:44:02.629Z,16.01
2022-10-05T10:47:18.738Z,16.22
2022-10-05T10:50:25.862Z,16.08
2022-10-05T10:53:29.855Z,16.02
2022-10-05T10:56:44.793Z,16.10
2022-10-05T11:00:15.672Z,16.14
2022-10-05T11:03:30.936Z,16.11
2022-10-05T11:07:10.448Z,16.15
2022-10-05T11:10:20.937Z,16.13
2022-10-05T11:13:24.978Z,16.27
2022-10-05T11:16:21.411Z,16.55
2022-10-05T11:19:59.584Z,16.53
2022-10-05T11:23:03.337Z,16.60
2022-10-05T11:25:44.364Z,16.57
2022-10-05T11:28:52.665Z,16.69
2022-10-05T11:32:25.949Z,16.86
2022-10-05T11:35:29.309Z,16.98
2022-10-05T11:38:58.284Z,17.22
2022-10-05T11:42:14.278Z,17.46
2022-10-05T11:45:15.771Z,17.69
2022-10-05T11:48:44.909Z,18.00
2022-10-05T11:51:51.704Z,18.27
2022-10-05T11:55:15.911Z,18.05
2022-10-05T11:57:54.837Z,17.72
2022-10-05T12:01:03.752Z,17.74
2022-10-05T12:04:47.681Z,17.64
2022-10-05T12:08:11.220Z,17.48
2022-10-05T12:11:11.321Z,17.39
2022-10-05T12:14:15.630Z,17.32
2022-10-05T12:17:47.552Z,17.19
2022-10-05T12:20:46.515Z,17.09
2022-10-05T12:23:45.295Z,17.14
2022-10-05T12:26:23.241Z,17.22
2022-10-05T12:29:19.126Z,17.48
2022-10-05T12:32:17.498Z,17.80
2022-10-05T12:35:36.200Z,17.94
2022-10-05T12:38:34.167Z,18.01
2022-10-05T12:41:45.447Z,18.24
2022-10-05T12:44:45.240Z,18.39
2022-10-05T12:47:24.478Z,18.60
2022-10-05T12:50:18.505Z,18.55
2022-10-05T12:53:32.881Z,18.68
2022-10-05T12:56:38.951Z,18.81
2022-10-05T12:59:35.737Z,18.89
2022-10-05T13:02:27.270Z,19.03
2022-10-05T13:05:09.188Z,18.99
2022-10-05T13:08:36.075Z,18.68
2022-10-05T13:11:39.311Z,18.29
2022-10-05T13:14:55.446Z,18.23
2022-10-05T13:17:55.922Z,18.05
2022-10-05T13:20:44.561Z,17.91
2022-10-05T13:23:52.676Z,18.19
2022-10-05T13:26:42.177Z,18.66
2022-10-05T13:29:58.491Z,18.88
2022-10-05T13:32:45.404Z,19.09
2022-10-05T13:35:44.876Z,19.36
2022-10-05T13:38:38.806Z,19.45
2022-10-05T13:41:47.126Z,19.30
2022-10-05T13:45:00.413Z,19.56
2022-10-05T13:48:14.986Z,19.50
2022-10-05T13:51:11.181Z,19.38
2022-10-05T13:54:10.659Z,19.24
2022-10-05T13:56:48.810Z,18.94
2022-10-05T13:59:41.994Z,19.35
2022-10-05T14:02:27.717Z,19.60
2022-10-05T14:05:28.324Z,19.79
2022-10-05T14:08:17.847Z,19.91
2022-10-05T14:10:48.030Z,19.83
2022-10-05T14:13:47.603Z,20.00
2022-10-05T14:16:26.287Z,20.04
2022-10-05T14:19:05.098Z,20.06
2022-10-05T14:21:49.669Z,19.63
2022-10-05T14:25:02.062Z,19.64
2022-10-05T14:27:36.506Z,19.62
2022-10-05T14:30:24.596Z,19.72
2022-10-05T14:32:56.348Z,19.57
2022-10-05T14:35:34.158Z,19.18
2022-10-05T14:38:21.392Z,18.86
2022-10-05T14:41:17.020Z,18.63
2022-10-05T14:44:26.678Z,18.43
2022-10-05T14:47:16.790Z,18.24
2022-10-05T14:50:16.930Z,18.07
2022-10-05T14:53:03.125Z,17.82
2022-10-05T14:56:17.443Z,17.57
2022-10-05T14:59:08.428Z,17.59
2022-10-05T15:02:08.137Z,17.43
2022-10-05T15:04:44.812Z,17.33
2022-10-05T15:07:26.667Z,17.22
2022-10-05T15:10:42.104Z,17.19
2022-10-05T15:13:32.958Z,17.27
2022-10-05T15:16:34.100Z,17.15
2022-10-05T15:19:40.878Z,17.09
2022-10-05T15:22:31.864Z,17.02
2022-10-05T15:25:40.440Z,17.17
2022-10-05T15:28:48.461Z,17.11
2022-10-05T15:31:37.731Z,17.14
2022-10-05T15:34:37.477Z,17.01
2022-10-05T15:37:43.146Z,16.72
2022-10-05T15:40:47.190Z,16.76
2022-10-05T15:43:23.326Z,16.70
2022-10-05T15:46:18.401Z,16.49
2022-10-05T15:49:10.466Z,16.28
2022-10-05T15:52:08.837Z,16.10
2022-10-05T15:55:17.292Z,15.86
2022-10-05T15:58:07.898Z,15.76
2022-10-05T16:00:50.423Z,15.61
2022-10-05T16:03:54.115Z,15.47
2022-10-05T16:06:57.610Z,15.38
2022-10-05T16:10:16.114Z,15.25
2022-10-05T16:13:25.787Z,15.09
2022-10-05T16:16:32.801Z,14.92
2022-10-05T16:19:28.547Z,14.75
2022-10-05T16:22:32.970Z,14.58
2022-10-05T16:25:19.087Z,14.42
2022-10-05T16:28:33.082Z,14.27
2022-10-05T16:31:06.949Z,14.14
2022-10-05T16:34:19.729Z,13.92
2022-10-05T16:37:33.386Z,13.76
2022-10-05T16:40:39.371Z,13.67
2022-10-05T16:43:31.757Z,13.55
2022-10-05T16:46:42.850Z,13.48
2022-10-05T16:49:36.954Z,13.38
2022-10-05T16:52:08.503Z,13.31
2022-10-05T16:54:53.872Z,13.21
2022-10-05T16:57:56.922Z,13.09
2022-10-05T17:01:24.807Z,12.98
2022-10-05T17:04:54.349Z,12.87
2022-10-05T17:08:15.161Z,12.73
2022-10-05T17:11:23.915Z,12.62
2022-10-05T17:14:28.151Z,12.53
2022-10-05T17:17:31.904Z,12.45
2022-10-05T17:20:40.243Z,12.36
2022-10-05T17:23:54.743Z,12.29
2022-10-05T17:26:59.327Z,12.23
2022-10-05T17:30:27.183Z,12.17
2022-10-05T17:33:29.806Z,12.07
2022-10-05T17:36:08.577Z,11.97
2022-10-05T17:38:35.393Z,11.93
2022-10-05T17:41:31.125Z,11.89
2022-10-05T17:44:07.139Z,11.80
2022-10-05T17:46:46.008Z,11.83
2022-10-05T17:50:19.508Z,11.78
2022-10-05T17:54:02.810Z,11.71
2022-10-05T17:56:57.126Z,11.65
2022-10-05T17:59:55.618Z,11.60
2022-10-05T18:02:40.159Z,11.58
2022-10-05T18:05:30.208Z,11.51
2022-10-05T18:08:12.856Z,11.45
2022-10-05T18:11:09.097Z,11.41
2022-10-05T18:13:46.361Z,11.45
2022-10-05T18:17:01.624Z,11.44
2022-10-05T18:19:33.331Z,11.35
2022-10-05T18:22:17.869Z,11.35
2022-10-05T18:25:19.500Z,11.33
2022-10-05T18:28:30.754Z,11.26
2022-10-05T18:31:40.474Z,11.21
2022-10-05T18:34:39.370Z,11.26
2022-10-05T18:38:02.047Z,11.22
2022-10-05T18:40:52.964Z,11.18
2022-10-05T18:43:45.717Z,11.17
2022-10-05T18:46:45.770Z,11.28
2022-10-05T18:50:25.151Z,11.58
2022-10-05T18:53:04.081Z,11.83
2022-10-05T18:55:48.929Z,11.89
2022-10-05T18:58:35.267Z,11.97
2022-10-05T19:02:28.747Z,11.98
2022-10-05T19:05:53.687Z,11.94
2022-10-05T19:08:39.228Z,11.97
2022-10-05T19:11:52.779Z,12.05
2022-10-05T19:15:04.832Z,12.16
2022-10-05T19:19:00.155Z,12.28
2022-10-05T19:21:59.776Z,12.46
2022-10-05T19:25:14.450Z,12.56
2022-10-05T19:28:44.198Z,12.68
2022-10-05T19:31:52.705Z,12.63
2022-10-05T19:34:45.704Z,12.66
2022-10-05T19:37:45.298Z,12.57
2022-10-05T19:40:39.267Z,12.46
2022-10-05T19:43:50.632Z,12.45
2022-10-05T19:46:31.921Z,12.56
2022-10-05T19:49:00.272Z,12.55
2022-10-05T19:51:37.131Z,12.48
2022-10-05T19:54:31.571Z,12.58
2022-10-05T19:57:02.905Z,12.63
2022-10-05T19:59:34.333Z,12.55
2022-10-05T20:02:02.519Z,12.55
2022-10-05T20:04:54.944Z,12.70
2022-10-05T20:07:23.003Z,12.71
2022-10-05T20:10:14.383Z,12.66
2022-10-05T20:12:56.016Z,12.60
2022-10-05T20:15:48.434Z,12.54
2022-10-05T20:18:56.517Z,12.50
2022-10-05T20:21:49.425Z,12.46
2022-10-05T20:24:25.690Z,12.38
2022-10-05T20:27:05.557Z,12.39
2022-10-05T20:29:36.836Z,12.36
2022-10-05T20:32:14.321Z,12.31
2022-10-05T20:34:46.459Z,12.34
2022-10-05T20:37:20.094Z,12.47
2022-10-05T20:39:51.506Z,12.48
2022-10-05T20:42:23.346Z,12.58
2022-10-05T20:44:55.827Z,12.55
2022-10-05T20:47:25.643Z,12.49
2022-10-05T20:49:55.622Z,12.46
2022-10-05T20:52:23.546Z,12.52
2022-10-05T20:54:56.724Z,12.54
2022-10-05T20:57:24.360Z,12.55
2022-10-05T20:59:52.206Z,12.56
2022-10-05T21:02:19.656Z,12.53
2022-10-05T21:04:47.790Z,12.53
2022-10-05T21:07:21.175Z,12.50
2022-10-05T21:09:48.223Z,12.51
2022-10-05T21:12:16.884Z,12.49
2022-10-05T21:14:44.165Z,12.51
2022-10-05T21:17:12.053Z,12.52
2022-10-05T21:19:40.479Z,12.51
2022-10-05T21:22:10.443Z,12.54
2022-10-05T21:24:40.926Z,12.56
2022-10-05T21:27:08.711Z,12.63
2022-10-05T21:29:37.111Z,12.74
2022-10-05T21:32:08.733Z,12.92
2022-10-05T21:34:35.825Z,13.06
2022-10-05T21:37:02.934Z,13.08
2022-10-05T21:39:29.854Z,13.07
2022-10-05T21:41:56.904Z,13.23
2022-10-05T21:44:23.910Z,13.28
2022-10-05T21:46:52.198Z,13.29
2022-10-05T21:49:20.259Z,13.23
2022-10-05T21:51:48.747Z,13.28
2022-10-05T21:54:22.747Z,13.18
2022-10-05T21:56:57.309Z,13.09
2022-10-05T21:59:33.237Z,13.10
2022-10-05T22:02:00.869Z,13.11
2022-10-05T22:04:28.136Z,13.17
2022-10-05T22:12:50.217Z,13.15
2022-10-05T22:15:17.330Z,13.15
2022-10-05T22:17:46.164Z,13.28
2022-10-05T22:20:15.525Z,13.22
2022-10-05T22:22:42.520Z,13.18
2022-10-05T22:25:09.641Z,13.16
2022-10-05T22:27:37.289Z,13.13
2022-10-05T22:30:06.318Z,13.07
2022-10-05T22:32:33.304Z,13.15
2022-10-05T22:35:00.321Z,13.06
2022-10-05T22:37:27.553Z,13.05
2022-10-05T22:39:55.346Z,13.07
2022-10-05T22:42:23.046Z,13.02
2022-10-05T22:44:49.974Z,12.96
2022-10-05T22:47:17.162Z,12.98
2022-10-05T22:49:44.116Z,12.93
2022-10-05T22:52:11.173Z,12.84
2022-10-05T22:54:38.369Z,12.73
2022-10-05T22:57:05.401Z,12.70
2022-10-05T22:59:32.458Z,12.64
2022-10-05T23:01:59.541Z,12.62
2022-10-05T23:04:26.613Z,12.61
2022-10-05T23:06:53.584Z,12.65
2022-10-05T23:09:20.656Z,12.60
2022-10-05T23:11:52.102Z,12.52
2022-10-05T23:14:19.664Z,12.59
2022-10-05T23:16:47.707Z,12.59
2022-10-05T23:19:14.669Z,12.51
2022-10-05T23:21:42.410Z,12.45
2022-10-05T23:24:09.383Z,12.38
2022-10-05T23:26:36.379Z,12.32
2022-10-05T23:29:03.561Z,12.27
2022-10-05T23:31:32.149Z,12.25
2022-10-05T23:33:59.645Z,12.42
2022-10-05T23:36:33.240Z,12.41
2022-10-05T23:39:00.629Z,12.38
2022-10-05T23:41:27.667Z,12.34
2022-10-05T23:43:55.303Z,12.31
2022-10-05T23:46:23.190Z,12.36
2022-10-05T23:48:50.471Z,12.48
2022-10-05T23:51:17.814Z,12.54
2022-10-05T23:53:45.372Z,12.50
2022-10-05T23:56:13.048Z,12.43
2022-10-05T23:58:41.108Z,12.38
